createdAt,value
2022-08-22T00:00:13.825Z,89.73
2022-08-22T00:02:43.019Z,81.50
2022-08-22T00:03:18.627Z,89.65
2022-08-22T00:06:01.942Z,89.54
2022-08-22T00:08:32.635Z,89.18
2022-08-22T00:11:25.762Z,89.06
2022-08-22T00:14:05.021Z,89.70
2022-08-22T00:16:56.373Z,89.44
2022-08-22T00:19:46.448Z,89.59
2022-08-22T00:22:26.012Z,89.62
2022-08-22T00:25:25.802Z,89.68
2022-08-22T00:28:15.390Z,88.99
2022-08-22T00:30:58.477Z,89.19
2022-08-22T00:33:39.035Z,89.94
2022-08-22T00:36:28.956Z,89.28
2022-08-22T00:39:10.045Z,89.23
2022-08-22T00:42:10.771Z,88.59
2022-08-22T00:44:39.924Z,88.97
2022-08-22T00:47:31.352Z,90.08
2022-08-22T00:50:26.267Z,89.69
2022-08-22T00:53:17.652Z,89.34
2022-08-22T00:55:57.201Z,89.90
2022-08-22T00:59:11.996Z,89.77
2022-08-22T01:02:11.076Z,89.68
2022-08-22T01:04:48.073Z,90.28
2022-08-22T01:07:43.457Z,90.51
2022-08-22T01:10:19.070Z,91.22
2022-08-22T01:13:07.416Z,91.69
2022-08-22T01:15:36.467Z,91.63
2022-08-22T01:18:05.837Z,92.17
2022-08-22T01:20:35.348Z,91.28
2022-08-22T01:23:22.312Z,90.44
2022-08-22T01:25:48.612Z,90.96
2022-08-22T01:28:24.383Z,90.70
2022-08-22T01:31:10.552Z,91.59
2022-08-22T01:34:11.300Z,91.70
2022-08-22T01:36:51.796Z,91.61
2022-08-22T01:39:33.361Z,91.57
2022-08-22T01:42:34.685Z,91.25
2022-08-22T01:45:04.176Z,92.02
2022-08-22T01:47:43.021Z,91.18
2022-08-22T01:50:19.204Z,90.91
2022-08-22T01:53:01.897Z,91.24
2022-08-22T01:55:56.859Z,90.92
2022-08-22T01:58:26.948Z,90.97
2022-08-22T02:01:21.250Z,91.77
2022-08-22T02:03:53.649Z,92.78
2022-08-22T02:06:40.936Z,92.25
2022-08-22T02:09:21.712Z,92.83
2022-08-22T02:11:54.907Z,92.44
2022-08-22T02:14:33.542Z,92.14
2022-08-22T02:17:22.985Z,91.46
2022-08-22T02:20:17.989Z,92.28
2022-08-22T02:23:13.288Z,91.50
2022-08-22T02:25:52.650Z,91.46
2022-08-22T02:28:56.887Z,91.05
2022-08-22T02:31:26.871Z,90.45
2022-08-22T02:33:59.060Z,90.64
2022-08-22T02:36:32.497Z,90.53
2022-08-22T02:39:16.757Z,91.04
2022-08-22T02:42:15.072Z,90.69
2022-08-22T02:44:52.783Z,90.79
2022-08-22T02:47:49.693Z,90.10
2022-08-22T02:50:26.209Z,90.14
2022-08-22T02:52:56.856Z,91.64
2022-08-22T02:55:32.323Z,90.28
2022-08-22T02:58:15.809Z,90.89
2022-08-22T03:00:51.261Z,91.13
2022-08-22T03:03:25.860Z,90.66
2022-08-22T03:06:04.324Z,90.78
2022-08-22T03:09:00.433Z,91.66
2022-08-22T03:11:32.053Z,92.11
2022-08-22T03:14:09.569Z,91.22
2022-08-22T03:16:47.795Z,91.65
2022-08-22T03:19:22.319Z,93.44
2022-08-22T03:21:58.098Z,93.12
2022-08-22T03:24:33.294Z,91.83
2022-08-22T03:27:02.391Z,92.19
2022-08-22T03:29:35.924Z,92.22
2022-08-22T03:32:11.812Z,92.29
2022-08-22T03:34:56.024Z,92.09
2022-08-22T03:37:37.771Z,91.60
2022-08-22T03:40:22.561Z,91.85
2022-08-22T03:43:20.017Z,91.99
2022-08-22T03:46:14.565Z,91.93
2022-08-22T03:48:56.956Z,92.73
2022-08-22T03:51:46.808Z,92.66
2022-08-22T03:54:34.893Z,91.90
2022-08-22T03:57:06.401Z,92.72
2022-08-22T03:59:57.215Z,93.00
2022-08-22T04:02:53.369Z,92.10
2022-08-22T04:05:44.757Z,92.41
2022-08-22T04:08:14.076Z,91.54
2022-08-22T04:11:21.551Z,92.22
2022-08-22T04:14:15.930Z,91.25
2022-08-22T04:17:04.245Z,91.82
2022-08-22T04:19:46.543Z,91.75
2022-08-22T04:22:34.801Z,92.38
2022-08-22T04:25:23.328Z,91.38
2022-08-22T04:28:15.938Z,92.49
2022-08-22T04:30:46.548Z,92.42
2022-08-22T04:33:28.372Z,92.91
2022-08-22T04:36:01.471Z,92.29
2022-08-22T04:38:37.130Z,92.83
2022-08-22T04:41:13.656Z,92.85
2022-08-22T04:43:53.071Z,94.15
2022-08-22T04:46:40.558Z,93.75
2022-08-22T04:49:25.811Z,93.30
2022-08-22T04:52:02.904Z,93.51
2022-08-22T04:54:29.244Z,94.28
2022-08-22T04:57:22.605Z,93.96
2022-08-22T04:59:49.732Z,94.78
2022-08-22T05:02:24.493Z,94.34
2022-08-22T05:04:59.493Z,94.75
2022-08-22T05:07:35.907Z,94.25
2022-08-22T05:10:11.621Z,94.34
2022-08-22T05:12:49.473Z,93.89
2022-08-22T05:15:26.780Z,93.65
2022-08-22T05:17:58.651Z,93.53
2022-08-22T05:20:28.773Z,93.46
2022-08-22T05:23:02.861Z,93.42
2022-08-22T05:25:36.320Z,94.07
2022-08-22T05:28:14.845Z,93.77
2022-08-22T05:30:45.904Z,94.13
2022-08-22T05:33:26.637Z,94.52
2022-08-22T05:35:59.075Z,94.94
2022-08-22T05:38:32.235Z,94.55
2022-08-22T05:41:09.228Z,94.50
2022-08-22T05:43:40.637Z,94.39
2022-08-22T05:46:16.480Z,94.19
2022-08-22T05:48:51.617Z,94.98
2022-08-22T05:51:25.283Z,95.06
2022-08-22T05:54:05.983Z,94.83
2022-08-22T05:56:41.577Z,94.23
2022-08-22T05:59:31.136Z,94.16
2022-08-22T06:02:09.849Z,95.04
2022-08-22T06:04:45.501Z,95.76
2022-08-22T06:07:20.933Z,95.98
2022-08-22T06:09:47.292Z,95.96
2022-08-22T06:12:22.250Z,95.93
2022-08-22T06:15:11.976Z,95.83
2022-08-22T06:17:47.911Z,96.82
2022-08-22T06:20:20.170Z,96.78
2022-08-22T06:22:53.617Z,95.40
2022-08-22T06:25:26.243Z,94.50
2022-08-22T06:27:54.398Z,94.42
2022-08-22T06:30:23.828Z,93.66
2022-08-22T06:32:59.951Z,92.42
2022-08-22T06:35:55.505Z,92.41
2022-08-22T06:38:28.346Z,92.36
2022-08-22T06:40:58.059Z,91.98
2022-08-22T06:43:25.517Z,91.57
2022-08-22T06:45:53.244Z,89.86
2022-08-22T06:48:23.608Z,89.31
2022-08-22T06:50:56.402Z,89.25
2022-08-22T06:53:47.817Z,88.16
2022-08-22T06:56:23.215Z,88.25
2022-08-22T06:58:54.457Z,87.79
2022-08-22T07:01:25.251Z,87.72
2022-08-22T07:03:55.221Z,87.51
2022-08-22T07:06:31.480Z,86.73
2022-08-22T07:08:58.324Z,86.46
2022-08-22T07:11:39.629Z,85.34
2022-08-22T07:14:13.289Z,85.44
2022-08-22T07:16:49.764Z,84.26
2022-08-22T07:19:27.172Z,84.21
2022-08-22T07:21:54.927Z,83.84
2022-08-22T07:24:27.772Z,84.67
2022-08-22T07:27:06.548Z,84.89
2022-08-22T07:29:46.871Z,84.79
2022-08-22T07:32:28.893Z,82.93
2022-08-22T07:35:09.107Z,80.46
2022-08-22T07:37:57.826Z,80.73
2022-08-22T07:40:31.386Z,80.88
2022-08-22T07:43:12.826Z,79.26
2022-08-22T07:46:21.746Z,79.66
2022-08-22T07:49:08.693Z,79.08
2022-08-22T07:51:43.428Z,78.95
2022-08-22T07:54:13.986Z,79.33
2022-08-22T07:56:47.544Z,79.04
2022-08-22T07:59:18.034Z,78.80
2022-08-22T08:01:48.618Z,74.75
2022-08-22T08:04:19.521Z,74.28
2022-08-22T08:06:50.698Z,75.04
2022-08-22T08:09:19.634Z,74.66
2022-08-22T08:11:49.185Z,74.40
2022-08-22T08:14:19.905Z,74.60
2022-08-22T08:17:06.000Z,73.53
2022-08-22T08:19:35.900Z,73.52
2022-08-22T08:22:02.821Z,69.78
2022-08-22T08:24:41.357Z,70.18
2022-08-22T08:27:40.917Z,69.40
2022-08-22T08:30:21.230Z,68.65
2022-08-22T08:33:24.289Z,67.47
2022-08-22T08:36:02.756Z,65.56
2022-08-22T08:38:36.161Z,68.10
2022-08-22T08:41:26.512Z,67.83
2022-08-22T08:44:08.388Z,66.96
2022-08-22T08:46:42.665Z,68.48
2022-08-22T08:49:30.967Z,68.78
2022-08-22T08:52:37.065Z,67.98
2022-08-22T08:58:31.876Z,64.45
2022-08-22T09:01:12.593Z,64.80
2022-08-22T09:04:01.238Z,63.01
2022-08-22T09:06:50.700Z,64.14
2022-08-22T09:09:26.087Z,62.46
2022-08-22T09:12:16.406Z,62.03
2022-08-22T09:15:11.941Z,63.72
2022-08-22T09:17:56.209Z,63.46
2022-08-22T09:20:46.226Z,62.83
2022-08-22T09:23:43.698Z,57.54
2022-08-22T09:26:23.809Z,61.52
2022-08-22T09:29:00.028Z,60.93
2022-08-22T09:31:48.371Z,59.96
2022-08-22T09:34:39.776Z,59.06
2022-08-22T09:37:25.283Z,60.42
2022-08-22T09:40:05.602Z,59.64
2022-08-22T09:40:16.157Z,66.59
2022-08-22T09:42:45.044Z,57.15
2022-08-22T09:45:31.152Z,55.54
2022-08-22T09:48:21.275Z,51.25
2022-08-22T09:51:28.324Z,48.66
2022-08-22T09:54:02.624Z,50.76
2022-08-22T09:56:49.438Z,50.23
2022-08-22T09:59:41.138Z,47.10
2022-08-22T10:02:32.257Z,45.38
2022-08-22T10:05:12.588Z,45.20
2022-08-22T10:08:05.182Z,46.54
2022-08-22T10:10:51.358Z,49.06
2022-08-22T10:13:36.356Z,49.91
2022-08-22T10:16:26.489Z,47.31
2022-08-22T10:19:12.334Z,46.81
2022-08-22T10:22:12.945Z,45.03
2022-08-22T10:25:16.220Z,46.38
2022-08-22T10:27:56.699Z,46.00
2022-08-22T10:30:29.516Z,46.68
2022-08-22T10:33:12.105Z,47.63
2022-08-22T10:36:18.403Z,47.80
2022-08-22T10:38:48.244Z,45.73
2022-08-22T10:41:26.637Z,44.71
2022-08-22T10:44:03.947Z,45.12
2022-08-22T10:46:46.190Z,41.91
2022-08-22T10:49:19.664Z,40.42
2022-08-22T10:52:14.870Z,39.95
2022-08-22T10:55:09.969Z,40.41
2022-08-22T10:57:54.845Z,42.09
2022-08-22T11:00:50.186Z,41.91
2022-08-22T11:03:24.945Z,41.20
2022-08-22T11:05:54.826Z,42.05
2022-08-22T11:08:51.052Z,42.91
2022-08-22T11:11:26.304Z,43.78
2022-08-22T11:14:30.058Z,44.19
2022-08-22T11:17:02.782Z,45.94
2022-08-22T11:19:58.343Z,43.34
2022-08-22T11:22:29.190Z,42.61
2022-08-22T11:25:29.207Z,43.42
2022-08-22T11:28:22.362Z,42.56
2022-08-22T11:31:14.145Z,42.92
2022-08-22T11:34:12.728Z,43.98
2022-08-22T11:36:47.043Z,44.71
2022-08-22T11:39:34.740Z,41.16
2022-08-22T11:42:15.370Z,44.71
2022-08-22T11:44:58.868Z,42.63
2022-08-22T11:47:31.118Z,44.70
2022-08-22T11:50:18.379Z,44.22
2022-08-22T11:52:44.783Z,44.73
2022-08-22T11:55:39.885Z,43.29
2022-08-22T11:58:28.965Z,45.03
2022-08-22T12:01:01.880Z,45.30
2022-08-22T12:03:55.848Z,43.83
2022-08-22T12:06:38.269Z,43.75
2022-08-22T12:09:20.507Z,41.14
2022-08-22T12:12:20.200Z,42.90
2022-08-22T12:15:11.405Z,44.15
2022-08-22T12:17:55.877Z,43.52
2022-08-22T12:20:46.834Z,41.72
2022-08-22T12:23:54.518Z,41.83
2022-08-22T12:26:27.196Z,40.10
2022-08-22T12:29:16.987Z,41.20
2022-08-22T12:31:58.741Z,38.94
2022-08-22T12:34:32.433Z,40.89
2022-08-22T12:37:16.538Z,41.77
2022-08-22T12:40:19.170Z,40.09
2022-08-22T12:42:57.676Z,41.23
2022-08-22T12:45:43.416Z,39.74
2022-08-22T12:48:42.557Z,39.98
2022-08-22T12:51:29.408Z,42.04
2022-08-22T12:54:23.630Z,43.43
2022-08-22T12:57:23.952Z,45.29
2022-08-22T12:59:58.140Z,45.05
2022-08-22T13:02:30.829Z,45.99
2022-08-22T13:05:10.847Z,44.51
2022-08-22T13:07:40.664Z,44.69
2022-08-22T13:10:14.529Z,44.01
2022-08-22T13:12:52.501Z,43.74
2022-08-22T13:15:18.835Z,44.01
2022-08-22T13:17:46.300Z,44.18
2022-08-22T13:20:34.578Z,44.71
2022-08-22T13:23:12.527Z,45.16
2022-08-22T13:26:07.454Z,44.87
2022-08-22T13:28:41.953Z,46.03
2022-08-22T13:31:09.911Z,45.54
2022-08-22T13:33:46.925Z,44.27
2022-08-22T13:36:22.090Z,44.65
2022-08-22T13:39:22.390Z,43.08
2022-08-22T13:41:52.833Z,45.45
2022-08-22T13:44:24.664Z,44.27
2022-08-22T13:47:12.862Z,43.94
2022-08-22T13:49:43.067Z,42.03
2022-08-22T13:52:32.060Z,40.86
2022-08-22T13:55:24.220Z,40.87
2022-08-22T13:58:01.425Z,41.01
2022-08-22T14:01:06.041Z,41.06
2022-08-22T14:03:42.901Z,41.09
2022-08-22T14:06:37.946Z,42.14
2022-08-22T14:09:40.522Z,43.06
2022-08-22T14:12:13.951Z,43.50
2022-08-22T14:14:46.219Z,43.81
2022-08-22T14:17:20.755Z,42.07
2022-08-22T14:19:59.643Z,41.84
2022-08-22T14:22:34.946Z,41.90
2022-08-22T14:25:07.329Z,40.76
2022-08-22T14:27:39.544Z,39.97
2022-08-22T14:30:18.914Z,42.40
2022-08-22T14:33:17.621Z,42.54
2022-08-22T14:35:52.900Z,39.72
2022-08-22T14:38:36.639Z,39.53
2022-08-22T14:41:52.382Z,39.63
2022-08-22T14:44:29.398Z,41.07
2022-08-22T14:47:54.290Z,41.31
2022-08-22T14:49:59.675Z,42.49
2022-08-22T14:52:40.668Z,43.31
2022-08-22T14:55:10.220Z,42.25
2022-08-22T14:57:43.556Z,41.25
2022-08-22T15:00:12.452Z,40.41
2022-08-22T15:02:40.462Z,40.55
2022-08-22T15:05:19.765Z,41.27
2022-08-22T15:07:55.980Z,42.45
2022-08-22T15:10:22.645Z,41.75
2022-08-22T15:12:53.858Z,39.96
2022-08-22T15:15:49.788Z,41.72
2022-08-22T15:18:23.458Z,42.30
2022-08-22T15:21:01.857Z,40.57
2022-08-22T15:23:31.968Z,41.45
2022-08-22T15:26:19.131Z,42.36
2022-08-22T15:28:55.689Z,40.21
2022-08-22T15:31:23.012Z,40.65
2022-08-22T15:33:50.189Z,40.95
2022-08-22T15:36:22.517Z,39.49
2022-08-22T15:39:28.387Z,39.93
2022-08-22T15:41:56.760Z,40.18
2022-08-22T15:44:33.401Z,39.60
2022-08-22T15:47:10.878Z,38.19
2022-08-22T15:49:58.790Z,40.67
2022-08-22T15:52:30.248Z,40.53
2022-08-22T15:55:05.939Z,40.54
2022-08-22T15:57:47.373Z,41.31
2022-08-22T16:00:29.588Z,40.02
2022-08-22T16:03:01.655Z,40.40
2022-08-22T16:05:34.417Z,39.03
2022-08-22T16:08:06.769Z,38.94
2022-08-22T16:10:53.820Z,40.91
2022-08-22T16:13:26.574Z,41.48
2022-08-22T16:16:16.147Z,41.33
2022-08-22T16:18:43.495Z,40.76
2022-08-22T16:21:14.301Z,42.18
2022-08-22T16:23:49.878Z,41.56
2022-08-22T16:26:20.685Z,42.10
2022-08-22T16:29:00.502Z,40.72
2022-08-22T16:31:34.961Z,42.19
2022-08-22T16:34:20.293Z,42.32
2022-08-22T16:36:49.370Z,41.85
2022-08-22T16:39:21.854Z,42.52
2022-08-22T16:41:54.809Z,41.94
2022-08-22T16:44:30.520Z,42.85
2022-08-22T16:47:09.204Z,41.16
2022-08-22T16:49:53.344Z,41.21
2022-08-22T16:52:25.618Z,42.68
2022-08-22T16:55:01.313Z,41.80
2022-08-22T16:57:59.286Z,41.31
2022-08-22T17:00:38.280Z,41.21
2022-08-22T17:03:18.093Z,42.21
2022-08-22T17:06:06.170Z,42.40
2022-08-22T17:08:38.541Z,43.12
2022-08-22T17:11:15.355Z,42.56
2022-08-22T17:13:56.022Z,43.72
2022-08-22T17:16:52.054Z,42.54
2022-08-22T17:19:42.106Z,42.31
2022-08-22T17:22:29.044Z,44.04
2022-08-22T17:25:10.531Z,43.41
2022-08-22T17:27:40.172Z,43.89
2022-08-22T17:30:24.898Z,44.48
2022-08-22T17:33:06.558Z,44.78
2022-08-22T17:35:51.324Z,44.90
2022-08-22T17:38:46.387Z,45.64
2022-08-22T17:41:43.032Z,45.73
2022-08-22T17:44:09.431Z,46.33
2022-08-22T17:46:49.408Z,47.43
2022-08-22T17:49:15.835Z,48.18
2022-08-22T17:51:45.160Z,48.30
2022-08-22T17:54:20.928Z,48.45
2022-08-22T17:57:02.681Z,49.52
2022-08-22T17:59:40.175Z,50.16
2022-08-22T18:02:28.813Z,51.58
2022-08-22T18:05:02.876Z,53.25
2022-08-22T18:07:36.016Z,54.07
2022-08-22T18:10:19.601Z,54.85
2022-08-22T18:13:01.318Z,56.41
2022-08-22T18:15:51.702Z,58.13
2022-08-22T18:18:35.790Z,59.23
2022-08-22T18:21:22.674Z,60.23
2022-08-22T18:23:54.140Z,61.33
2022-08-22T18:26:29.429Z,61.57
2022-08-22T18:29:11.143Z,62.87
2022-08-22T18:32:05.544Z,63.12
2022-08-22T18:34:47.066Z,63.44
2022-08-22T18:37:35.780Z,63.49
2022-08-22T18:40:08.378Z,64.72
2022-08-22T18:42:58.763Z,64.68
2022-08-22T18:45:44.638Z,65.78
2022-08-22T18:48:59.752Z,66.93
2022-08-22T18:51:38.385Z,67.26
2022-08-22T18:54:05.131Z,67.79
2022-08-22T18:56:31.490Z,68.53
2022-08-22T18:59:30.153Z,67.80
2022-08-22T19:02:21.537Z,68.69
2022-08-22T19:05:25.069Z,67.07
2022-08-22T19:08:08.165Z,66.00
2022-08-22T19:11:02.977Z,67.36
2022-08-22T19:13:38.625Z,68.11
2022-08-22T19:16:26.630Z,68.08
2022-08-22T19:18:57.448Z,68.36
2022-08-22T19:21:42.592Z,68.00
2022-08-22T19:24:17.803Z,69.82
2022-08-22T19:27:08.590Z,69.82
2022-08-22T19:29:34.949Z,69.78
2022-08-22T19:32:05.934Z,70.14
2022-08-22T19:34:40.786Z,70.44
2022-08-22T19:37:30.504Z,69.69
2022-08-22T19:40:00.738Z,70.44
2022-08-22T19:42:27.325Z,68.75
2022-08-22T19:44:53.855Z,68.74
2022-08-22T19:47:29.244Z,67.79
2022-08-22T19:50:16.912Z,68.27
2022-08-22T19:52:56.803Z,68.49
2022-08-22T19:55:38.657Z,69.36
2022-08-22T19:58:32.541Z,69.66
2022-08-22T20:01:09.841Z,70.00
2022-08-22T20:04:20.819Z,69.63
2022-08-22T20:07:18.876Z,70.22
2022-08-22T20:10:04.525Z,69.29
2022-08-22T20:12:41.026Z,69.46
2022-08-22T20:15:22.370Z,70.34
2022-08-22T20:20:55.191Z,68.24
2022-08-22T20:23:31.112Z,68.79
2022-08-22T20:25:58.282Z,68.90
2022-08-22T20:28:36.609Z,67.14
2022-08-22T20:31:09.632Z,65.36
2022-08-22T20:33:39.808Z,65.77
2022-08-22T20:36:18.505Z,64.69
2022-08-22T20:38:59.952Z,66.97
2022-08-22T20:41:36.623Z,67.08
2022-08-22T20:44:29.438Z,65.95
2022-08-22T20:47:06.052Z,67.08
2022-08-22T20:49:41.978Z,66.45
2022-08-22T20:52:20.356Z,67.69
2022-08-22T20:54:57.888Z,68.10
2022-08-22T20:57:24.491Z,69.22
2022-08-22T21:00:15.117Z,68.63
2022-08-22T21:03:07.349Z,69.28
2022-08-22T21:05:41.100Z,69.80
2022-08-22T21:08:13.146Z,70.66
2022-08-22T21:10:59.700Z,72.14
2022-08-22T21:13:33.967Z,69.86
2022-08-22T21:16:31.244Z,70.31
2022-08-22T21:18:58.924Z,70.47
2022-08-22T21:21:28.905Z,70.54
2022-08-22T21:24:01.323Z,72.12
2022-08-22T21:26:33.364Z,71.48
2022-08-22T21:29:18.122Z,71.62
2022-08-22T21:31:48.534Z,71.49
2022-08-22T21:34:22.707Z,71.10
2022-08-22T21:36:54.818Z,71.69
2022-08-22T21:39:25.040Z,72.02
2022-08-22T21:41:59.092Z,72.88
2022-08-22T21:44:31.714Z,73.14
2022-08-22T21:47:13.843Z,73.15
2022-08-22T21:50:18.693Z,72.08
2022-08-22T21:53:10.308Z,72.82
2022-08-22T21:55:43.419Z,73.11
2022-08-22T21:58:30.986Z,73.16
2022-08-22T22:01:22.184Z,73.49
2022-08-22T22:03:51.762Z,73.82
2022-08-22T22:06:18.176Z,73.78
2022-08-22T22:08:44.633Z,72.89
2022-08-22T22:11:15.068Z,72.42
2022-08-22T22:13:42.294Z,73.17
2022-08-22T22:16:12.067Z,73.63
2022-08-22T22:18:39.748Z,73.78
2022-08-22T22:21:06.559Z,75.23
2022-08-22T22:23:33.054Z,74.54
2022-08-22T22:26:02.434Z,74.14
2022-08-22T22:28:34.869Z,74.53
2022-08-22T22:31:01.495Z,75.72
2022-08-22T22:33:31.528Z,75.65
2022-08-22T22:36:03.737Z,75.93
2022-08-22T22:38:30.191Z,75.41
2022-08-22T22:40:56.680Z,76.45
2022-08-22T22:43:23.140Z,75.95
2022-08-22T22:45:49.888Z,76.05
2022-08-22T22:48:24.134Z,76.48
2022-08-22T22:50:54.998Z,76.56
2022-08-22T22:53:38.621Z,77.40
2022-08-22T22:56:09.222Z,78.02
2022-08-22T22:58:36.266Z,77.90
2022-08-22T23:01:15.314Z,77.86
2022-08-22T23:03:42.577Z,77.34
2022-08-22T23:06:14.502Z,77.95
2022-08-22T23:08:41.473Z,78.38
2022-08-22T23:11:15.104Z,78.02
2022-08-22T23:13:42.761Z,77.96
2022-08-22T23:16:12.941Z,78.21
2022-08-22T23:18:40.015Z,79.20
2022-08-22T23:21:30.044Z,78.22
2022-08-22T23:23:58.415Z,78.63
2022-08-22T23:26:25.131Z,78.05
2022-08-22T23:28:51.860Z,78.63
2022-08-22T23:31:27.967Z,79.78
2022-08-22T23:33:55.559Z,80.02
2022-08-22T23:36:23.871Z,80.29
2022-08-22T23:38:51.585Z,80.98
2022-08-22T23:41:21.434Z,80.43
2022-08-22T23:43:51.553Z,79.98
2022-08-22T23:46:20.856Z,80.10
2022-08-22T23:48:47.855Z,80.24
2022-08-22T23:51:16.492Z,79.62
2022-08-22T23:53:44.257Z,80.18
2022-08-22T23:56:19.748Z,80.87
2022-08-22T23:58:47.000Z,80.52
